sensor_id;sensor_type;location;lat;lon;timestamp;temperature;humidity
57829;DHT22;43657;52.698;6.314;2024-01-30T00:01:25;5.10;99.90
57829;DHT22;43657;52.698;6.314;2024-01-30T00:03:51;5.20;99.90
57829;DHT22;43657;52.698;6.314;2024-01-30T00:06:20;5.10;99.90
57829;DHT22;43657;52.698;6.314;2024-01-30T00:08:49;5.10;99.90
57829;DHT22;43657;52.698;6.314;2024-01-30T00:11:15;5.00;99.90
57829;DHT22;43657;52.698;6.314;2024-01-30T00:13:41;5.00;99.90
57829;DHT22;43657;52.698;6.314;2024-01-30T00:16:07;5.10;99.90
57829;DHT22;43657;52.698;6.314;2024-01-30T00:18:34;5.00;99.90
57829;DHT22;43657;52.698;6.314;2024-01-30T00:21:00;5.00;99.90
57829;DHT22;43657;52.698;6.314;2024-01-30T00:23:25;5.00;99.90
57829;DHT22;43657;52.698;6.314;2024-01-30T00:25:51;5.00;99.90
57829;DHT22;43657;52.698;6.314;2024-01-30T00:28:17;4.90;99.90
57829;DHT22;43657;52.698;6.314;2024-01-30T00:30:43;4.90;99.90
57829;DHT22;43657;52.698;6.314;2024-01-30T00:33:09;4.90;99.90
57829;DHT22;43657;52.698;6.314;2024-01-30T00:35:35;4.80;99.90
57829;DHT22;43657;52.698;6.314;2024-01-30T00:38:00;4.80;99.90
57829;DHT22;43657;52.698;6.314;2024-01-30T00:40:26;4.80;99.90
57829;DHT22;43657;52.698;6.314;2024-01-30T00:42:52;4.80;99.90
57829;DHT22;43657;52.698;6.314;2024-01-30T00:45:18;4.70;99.90
57829;DHT22;43657;52.698;6.314;2024-01-30T00:47:44;4.70;99.90
57829;DHT22;43657;52.698;6.314;2024-01-30T00:50:11;4.70;99.90
57829;DHT22;43657;52.698;6.314;2024-01-30T00:52:36;4.70;99.90
57829;DHT22;43657;52.698;6.314;2024-01-30T00:55:04;4.70;99.90
57829;DHT22;43657;52.698;6.314;2024-01-30T00:57:30;4.70;99.90
57829;DHT22;43657;52.698;6.314;2024-01-30T00:59:56;4.70;99.90
57829;DHT22;43657;52.698;6.314;2024-01-30T01:02:22;4.70;99.90
57829;DHT22;43657;52.698;6.314;2024-01-30T01:04:48;4.70;99.90
57829;DHT22;43657;52.698;6.314;2024-01-30T01:07:13;4.70;99.90
57829;DHT22;43657;52.698;6.314;2024-01-30T01:09:39;4.70;99.90
57829;DHT22;43657;52.698;6.314;2024-01-30T01:12:05;4.70;99.90
57829;DHT22;43657;52.698;6.314;2024-01-30T01:14:30;4.70;99.90
57829;DHT22;43657;52.698;6.314;2024-01-30T01:16:56;4.70;99.90
57829;DHT22;43657;52.698;6.314;2024-01-30T01:19:22;4.70;99.90
57829;DHT22;43657;52.698;6.314;2024-01-30T01:21:48;4.80;99.90
57829;DHT22;43657;52.698;6.314;2024-01-30T01:24:13;4.70;99.90
57829;DHT22;43657;52.698;6.314;2024-01-30T01:26:39;4.80;99.90
57829;DHT22;43657;52.698;6.314;2024-01-30T01:29:06;4.70;99.90
57829;DHT22;43657;52.698;6.314;2024-01-30T01:31:38;4.60;99.90
57829;DHT22;43657;52.698;6.314;2024-01-30T01:34:11;4.70;99.90
57829;DHT22;43657;52.698;6.314;2024-01-30T01:36:37;4.80;99.90
57829;DHT22;43657;52.698;6.314;2024-01-30T01:39:03;4.70;99.90
57829;DHT22;43657;52.698;6.314;2024-01-30T01:41:32;4.60;99.90
57829;DHT22;43657;52.698;6.314;2024-01-30T01:43:58;4.60;99.90
57829;DHT22;43657;52.698;6.314;2024-01-30T01:46:27;4.60;99.90
57829;DHT22;43657;52.698;6.314;2024-01-30T01:48:54;4.60;99.90
57829;DHT22;43657;52.698;6.314;2024-01-30T01:51:20;4.60;99.90
57829;DHT22;43657;52.698;6.314;2024-01-30T01:53:47;4.60;99.90
57829;DHT22;43657;52.698;6.314;2024-01-30T01:56:12;4.60;99.90
57829;DHT22;43657;52.698;6.314;2024-01-30T01:58:38;4.60;99.90
57829;DHT22;43657;52.698;6.314;2024-01-30T02:01:04;4.60;99.90
57829;DHT22;43657;52.698;6.314;2024-01-30T02:03:30;4.60;99.90
57829;DHT22;43657;52.698;6.314;2024-01-30T02:05:56;4.60;99.90
57829;DHT22;43657;52.698;6.314;2024-01-30T02:08:23;4.60;99.90
57829;DHT22;43657;52.698;6.314;2024-01-30T02:10:49;4.60;99.90
57829;DHT22;43657;52.698;6.314;2024-01-30T02:13:15;4.60;99.90
57829;DHT22;43657;52.698;6.314;2024-01-30T02:15:41;4.60;99.90
57829;DHT22;43657;52.698;6.314;2024-01-30T02:18:06;4.60;99.90
57829;DHT22;43657;52.698;6.314;2024-01-30T02:20:34;4.60;99.90
57829;DHT22;43657;52.698;6.314;2024-01-30T02:23:01;4.60;99.90
57829;DHT22;43657;52.698;6.314;2024-01-30T02:25:40;4.60;99.90
57829;DHT22;43657;52.698;6.314;2024-01-30T02:28:13;4.60;99.90
57829;DHT22;43657;52.698;6.314;2024-01-30T02:30:40;4.50;99.90
57829;DHT22;43657;52.698;6.314;2024-01-30T02:33:06;4.50;99.90
57829;DHT22;43657;52.698;6.314;2024-01-30T02:35:32;4.50;99.90
57829;DHT22;43657;52.698;6.314;2024-01-30T02:37:58;4.50;99.90
57829;DHT22;43657;52.698;6.314;2024-01-30T02:40:24;4.60;99.90
57829;DHT22;43657;52.698;6.314;2024-01-30T02:42:50;4.50;99.90
57829;DHT22;43657;52.698;6.314;2024-01-30T02:45:15;4.50;99.90
57829;DHT22;43657;52.698;6.314;2024-01-30T02:47:41;4.50;99.90
57829;DHT22;43657;52.698;6.314;2024-01-30T02:50:07;4.50;99.90
57829;DHT22;43657;52.698;6.314;2024-01-30T02:52:33;4.50;99.90
57829;DHT22;43657;52.698;6.314;2024-01-30T02:54:59;4.50;99.90
57829;DHT22;43657;52.698;6.314;2024-01-30T02:57:24;4.50;99.90
57829;DHT22;43657;52.698;6.314;2024-01-30T02:59:50;4.50;99.90
57829;DHT22;43657;52.698;6.314;2024-01-30T03:02:16;4.40;99.90
57829;DHT22;43657;52.698;6.314;2024-01-30T03:04:41;4.40;99.90
57829;DHT22;43657;52.698;6.314;2024-01-30T03:07:08;4.40;99.90
57829;DHT22;43657;52.698;6.314;2024-01-30T03:09:33;4.40;99.90
57829;DHT22;43657;52.698;6.314;2024-01-30T03:11:59;4.40;99.90
57829;DHT22;43657;52.698;6.314;2024-01-30T03:14:25;4.40;99.90
57829;DHT22;43657;52.698;6.314;2024-01-30T03:16:50;4.50;99.90
57829;DHT22;43657;52.698;6.314;2024-01-30T03:19:16;4.50;99.90
57829;DHT22;43657;52.698;6.314;2024-01-30T03:21:42;4.50;99.90
57829;DHT22;43657;52.698;6.314;2024-01-30T03:24:07;4.50;99.90
57829;DHT22;43657;52.698;6.314;2024-01-30T03:26:34;4.50;99.90
57829;DHT22;43657;52.698;6.314;2024-01-30T03:29:00;4.60;99.90
57829;DHT22;43657;52.698;6.314;2024-01-30T03:31:25;4.60;99.90
57829;DHT22;43657;52.698;6.314;2024-01-30T03:33:51;4.70;99.90
57829;DHT22;43657;52.698;6.314;2024-01-30T03:36:17;4.70;99.90
57829;DHT22;43657;52.698;6.314;2024-01-30T03:38:42;4.80;99.90
57829;DHT22;43657;52.698;6.314;2024-01-30T03:41:08;4.80;99.90
57829;DHT22;43657;52.698;6.314;2024-01-30T03:43:35;4.90;99.90
57829;DHT22;43657;52.698;6.314;2024-01-30T03:46:02;5.00;99.90
57829;DHT22;43657;52.698;6.314;2024-01-30T03:48:28;5.00;99.90
57829;DHT22;43657;52.698;6.314;2024-01-30T03:50:54;5.00;99.90
57829;DHT22;43657;52.698;6.314;2024-01-30T03:53:20;5.00;99.90
57829;DHT22;43657;52.698;6.314;2024-01-30T03:55:46;5.10;99.90
57829;DHT22;43657;52.698;6.314;2024-01-30T03:58:11;5.10;99.90
57829;DHT22;43657;52.698;6.314;2024-01-30T04:00:37;5.10;99.90
57829;DHT22;43657;52.698;6.314;2024-01-30T04:03:03;5.20;99.90
57829;DHT22;43657;52.698;6.314;2024-01-30T04:05:28;5.30;99.90
57829;DHT22;43657;52.698;6.314;2024-01-30T04:07:54;5.30;99.90
57829;DHT22;43657;52.698;6.314;2024-01-30T04:10:20;5.30;99.90
57829;DHT22;43657;52.698;6.314;2024-01-30T04:12:45;5.40;99.90
57829;DHT22;43657;52.698;6.314;2024-01-30T04:15:11;5.40;99.90
57829;DHT22;43657;52.698;6.314;2024-01-30T04:17:37;5.40;99.90
57829;DHT22;43657;52.698;6.314;2024-01-30T04:20:02;5.30;99.90
57829;DHT22;43657;52.698;6.314;2024-01-30T04:22:28;5.40;99.90
57829;DHT22;43657;52.698;6.314;2024-01-30T04:24:54;5.40;99.90
57829;DHT22;43657;52.698;6.314;2024-01-30T04:27:20;5.40;99.90
57829;DHT22;43657;52.698;6.314;2024-01-30T04:29:45;5.40;99.90
57829;DHT22;43657;52.698;6.314;2024-01-30T04:32:11;5.40;99.90
57829;DHT22;43657;52.698;6.314;2024-01-30T04:34:37;5.50;99.90
57829;DHT22;43657;52.698;6.314;2024-01-30T04:37:03;5.50;99.90
57829;DHT22;43657;52.698;6.314;2024-01-30T04:39:28;5.40;99.90
57829;DHT22;43657;52.698;6.314;2024-01-30T04:41:54;5.40;99.90
57829;DHT22;43657;52.698;6.314;2024-01-30T04:44:19;5.50;99.90
57829;DHT22;43657;52.698;6.314;2024-01-30T04:46:45;5.40;99.90
57829;DHT22;43657;52.698;6.314;2024-01-30T04:49:11;5.50;99.90
57829;DHT22;43657;52.698;6.314;2024-01-30T04:51:36;5.50;99.90
57829;DHT22;43657;52.698;6.314;2024-01-30T04:54:02;5.60;99.90
57829;DHT22;43657;52.698;6.314;2024-01-30T04:56:28;5.70;99.90
57829;DHT22;43657;52.698;6.314;2024-01-30T04:58:53;5.70;99.90
57829;DHT22;43657;52.698;6.314;2024-01-30T05:01:19;5.70;99.90
57829;DHT22;43657;52.698;6.314;2024-01-30T05:03:45;5.70;99.90
57829;DHT22;43657;52.698;6.314;2024-01-30T05:06:10;5.70;99.90
57829;DHT22;43657;52.698;6.314;2024-01-30T05:08:36;5.70;99.90
57829;DHT22;43657;52.698;6.314;2024-01-30T05:11:02;5.80;99.90
57829;DHT22;43657;52.698;6.314;2024-01-30T05:13:31;5.70;99.90
57829;DHT22;43657;52.698;6.314;2024-01-30T05:16:02;5.80;99.90
57829;DHT22;43657;52.698;6.314;2024-01-30T05:18:28;5.70;99.90
57829;DHT22;43657;52.698;6.314;2024-01-30T05:20:54;5.70;99.90
57829;DHT22;43657;52.698;6.314;2024-01-30T05:23:20;5.70;99.90
57829;DHT22;43657;52.698;6.314;2024-01-30T05:25:46;5.70;99.90
57829;DHT22;43657;52.698;6.314;2024-01-30T05:28:11;5.80;99.90
57829;DHT22;43657;52.698;6.314;2024-01-30T05:30:37;5.80;99.90
57829;DHT22;43657;52.698;6.314;2024-01-30T05:33:02;5.80;99.90
57829;DHT22;43657;52.698;6.314;2024-01-30T05:35:29;5.80;99.90
57829;DHT22;43657;52.698;6.314;2024-01-30T05:37:54;5.80;99.90
57829;DHT22;43657;52.698;6.314;2024-01-30T05:40:20;5.80;99.90
57829;DHT22;43657;52.698;6.314;2024-01-30T05:42:46;5.80;99.90
57829;DHT22;43657;52.698;6.314;2024-01-30T05:45:11;5.90;99.90
57829;DHT22;43657;52.698;6.314;2024-01-30T05:47:37;5.80;99.90
57829;DHT22;43657;52.698;6.314;2024-01-30T05:50:03;5.90;99.90
57829;DHT22;43657;52.698;6.314;2024-01-30T05:52:28;5.90;99.90
57829;DHT22;43657;52.698;6.314;2024-01-30T05:54:54;5.90;99.90
57829;DHT22;43657;52.698;6.314;2024-01-30T05:57:20;5.90;99.90
57829;DHT22;43657;52.698;6.314;2024-01-30T05:59:45;5.90;99.90
57829;DHT22;43657;52.698;6.314;2024-01-30T06:02:13;5.80;99.90
57829;DHT22;43657;52.698;6.314;2024-01-30T06:04:39;5.90;99.90
57829;DHT22;43657;52.698;6.314;2024-01-30T06:07:04;6.00;99.90
57829;DHT22;43657;52.698;6.314;2024-01-30T06:09:34;5.90;99.90
57829;DHT22;43657;52.698;6.314;2024-01-30T06:11:59;5.90;99.90
57829;DHT22;43657;52.698;6.314;2024-01-30T06:14:25;6.00;99.90
57829;DHT22;43657;52.698;6.314;2024-01-30T06:16:51;6.00;99.90
57829;DHT22;43657;52.698;6.314;2024-01-30T06:19:16;6.00;99.90
57829;DHT22;43657;52.698;6.314;2024-01-30T06:21:42;6.10;99.90
57829;DHT22;43657;52.698;6.314;2024-01-30T06:24:07;6.10;99.90
57829;DHT22;43657;52.698;6.314;2024-01-30T06:26:34;6.20;99.90
57829;DHT22;43657;52.698;6.314;2024-01-30T06:28:59;6.20;99.90
57829;DHT22;43657;52.698;6.314;2024-01-30T06:31:25;6.20;99.90
57829;DHT22;43657;52.698;6.314;2024-01-30T06:33:51;6.30;99.90
57829;DHT22;43657;52.698;6.314;2024-01-30T06:36:16;6.40;99.90
57829;DHT22;43657;52.698;6.314;2024-01-30T06:38:42;6.40;99.90
57829;DHT22;43657;52.698;6.314;2024-01-30T06:41:07;6.40;99.90
57829;DHT22;43657;52.698;6.314;2024-01-30T06:43:33;6.40;99.90
57829;DHT22;43657;52.698;6.314;2024-01-30T06:45:59;6.50;99.90
57829;DHT22;43657;52.698;6.314;2024-01-30T06:48:25;6.40;99.90
57829;DHT22;43657;52.698;6.314;2024-01-30T06:50:53;6.50;99.90
57829;DHT22;43657;52.698;6.314;2024-01-30T06:53:19;6.50;99.90
57829;DHT22;43657;52.698;6.314;2024-01-30T06:55:45;6.60;99.90
57829;DHT22;43657;52.698;6.314;2024-01-30T06:58:10;6.60;99.90
57829;DHT22;43657;52.698;6.314;2024-01-30T07:00:36;6.60;99.90
57829;DHT22;43657;52.698;6.314;2024-01-30T07:03:02;6.70;99.90
57829;DHT22;43657;52.698;6.314;2024-01-30T07:05:27;6.60;99.90
57829;DHT22;43657;52.698;6.314;2024-01-30T07:07:53;6.70;99.90
57829;DHT22;43657;52.698;6.314;2024-01-30T07:10:19;6.60;99.90
57829;DHT22;43657;52.698;6.314;2024-01-30T07:12:44;6.70;99.90
57829;DHT22;43657;52.698;6.314;2024-01-30T07:15:10;6.60;99.90
57829;DHT22;43657;52.698;6.314;2024-01-30T07:17:36;6.70;99.90
57829;DHT22;43657;52.698;6.314;2024-01-30T07:20:03;6.70;99.90
57829;DHT22;43657;52.698;6.314;2024-01-30T07:22:34;6.70;99.90
57829;DHT22;43657;52.698;6.314;2024-01-30T07:25:01;6.70;99.90
57829;DHT22;43657;52.698;6.314;2024-01-30T07:27:34;6.70;99.90
57829;DHT22;43657;52.698;6.314;2024-01-30T07:30:03;6.60;99.90
57829;DHT22;43657;52.698;6.314;2024-01-30T07:32:37;6.80;99.90
57829;DHT22;43657;52.698;6.314;2024-01-30T07:35:03;6.80;99.90
57829;DHT22;43657;52.698;6.314;2024-01-30T07:37:30;6.80;99.90
57829;DHT22;43657;52.698;6.314;2024-01-30T07:39:59;6.80;99.90
57829;DHT22;43657;52.698;6.314;2024-01-30T07:42:30;6.90;99.90
57829;DHT22;43657;52.698;6.314;2024-01-30T07:45:16;6.90;99.90
57829;DHT22;43657;52.698;6.314;2024-01-30T07:47:58;6.90;99.90
57829;DHT22;43657;52.698;6.314;2024-01-30T07:50:25;6.90;99.90
57829;DHT22;43657;52.698;6.314;2024-01-30T07:52:53;6.90;99.90
57829;DHT22;43657;52.698;6.314;2024-01-30T07:55:20;7.00;99.90
57829;DHT22;43657;52.698;6.314;2024-01-30T07:57:51;7.00;99.90
57829;DHT22;43657;52.698;6.314;2024-01-30T08:00:18;7.00;99.90
57829;DHT22;43657;52.698;6.314;2024-01-30T08:02:44;7.00;99.90
57829;DHT22;43657;52.698;6.314;2024-01-30T08:05:10;7.00;99.90
57829;DHT22;43657;52.698;6.314;2024-01-30T08:07:37;7.10;99.90
57829;DHT22;43657;52.698;6.314;2024-01-30T08:10:02;7.20;99.90
57829;DHT22;43657;52.698;6.314;2024-01-30T08:12:28;7.20;99.90
57829;DHT22;43657;52.698;6.314;2024-01-30T08:14:54;7.20;99.90
57829;DHT22;43657;52.698;6.314;2024-01-30T08:17:19;7.30;99.90
57829;DHT22;43657;52.698;6.314;2024-01-30T08:19:45;7.30;99.90
57829;DHT22;43657;52.698;6.314;2024-01-30T08:22:12;7.40;99.90
57829;DHT22;43657;52.698;6.314;2024-01-30T08:24:38;7.40;99.90
57829;DHT22;43657;52.698;6.314;2024-01-30T08:27:06;7.40;99.90
57829;DHT22;43657;52.698;6.314;2024-01-30T08:29:32;7.50;99.90
57829;DHT22;43657;52.698;6.314;2024-01-30T08:31:57;7.60;99.90
57829;DHT22;43657;52.698;6.314;2024-01-30T08:34:24;7.60;99.90
57829;DHT22;43657;52.698;6.314;2024-01-30T08:36:53;7.70;99.90
57829;DHT22;43657;52.698;6.314;2024-01-30T08:39:21;7.70;99.90
57829;DHT22;43657;52.698;6.314;2024-01-30T08:41:47;7.80;99.90
57829;DHT22;43657;52.698;6.314;2024-01-30T08:44:12;7.80;99.90
57829;DHT22;43657;52.698;6.314;2024-01-30T08:46:38;7.90;99.90
57829;DHT22;43657;52.698;6.314;2024-01-30T08:49:04;7.90;99.90
57829;DHT22;43657;52.698;6.314;2024-01-30T08:51:30;8.00;99.90
57829;DHT22;43657;52.698;6.314;2024-01-30T08:53:56;8.00;99.90
57829;DHT22;43657;52.698;6.314;2024-01-30T08:56:24;8.00;99.90
57829;DHT22;43657;52.698;6.314;2024-01-30T08:58:50;8.00;99.90
57829;DHT22;43657;52.698;6.314;2024-01-30T09:01:16;8.10;99.90
57829;DHT22;43657;52.698;6.314;2024-01-30T09:03:42;8.20;99.90
57829;DHT22;43657;52.698;6.314;2024-01-30T09:06:11;8.20;99.90
57829;DHT22;43657;52.698;6.314;2024-01-30T09:08:37;8.30;99.90
57829;DHT22;43657;52.698;6.314;2024-01-30T09:11:10;8.40;99.90
57829;DHT22;43657;52.698;6.314;2024-01-30T09:13:36;8.50;99.90
57829;DHT22;43657;52.698;6.314;2024-01-30T09:16:02;8.60;99.90
57829;DHT22;43657;52.698;6.314;2024-01-30T09:18:28;8.60;99.90
57829;DHT22;43657;52.698;6.314;2024-01-30T09:20:57;8.70;99.90
57829;DHT22;43657;52.698;6.314;2024-01-30T09:23:23;8.80;99.90
57829;DHT22;43657;52.698;6.314;2024-01-30T09:25:48;8.90;99.90
57829;DHT22;43657;52.698;6.314;2024-01-30T09:28:14;9.00;99.90
57829;DHT22;43657;52.698;6.314;2024-01-30T09:30:40;9.10;99.90
57829;DHT22;43657;52.698;6.314;2024-01-30T09:33:07;9.10;99.90
57829;DHT22;43657;52.698;6.314;2024-01-30T09:35:36;9.10;99.90
57829;DHT22;43657;52.698;6.314;2024-01-30T09:38:05;9.20;99.90
57829;DHT22;43657;52.698;6.314;2024-01-30T09:40:31;9.30;99.90
57829;DHT22;43657;52.698;6.314;2024-01-30T09:43:00;9.30;99.90
57829;DHT22;43657;52.698;6.314;2024-01-30T09:45:32;9.40;99.90
57829;DHT22;43657;52.698;6.314;2024-01-30T09:48:01;9.50;99.90
57829;DHT22;43657;52.698;6.314;2024-01-30T09:50:34;9.50;99.90
57829;DHT22;43657;52.698;6.314;2024-01-30T09:53:04;9.50;99.90
57829;DHT22;43657;52.698;6.314;2024-01-30T09:55:30;9.50;99.90
57829;DHT22;43657;52.698;6.314;2024-01-30T09:57:57;9.60;99.90
57829;DHT22;43657;52.698;6.314;2024-01-30T10:00:25;9.60;99.90
57829;DHT22;43657;52.698;6.314;2024-01-30T10:02:55;9.70;99.90
57829;DHT22;43657;52.698;6.314;2024-01-30T10:05:28;9.70;99.90
57829;DHT22;43657;52.698;6.314;2024-01-30T10:07:59;9.70;99.90
57829;DHT22;43657;52.698;6.314;2024-01-30T10:10:28;9.70;99.90
57829;DHT22;43657;52.698;6.314;2024-01-30T10:12:54;9.80;99.90
57829;DHT22;43657;52.698;6.314;2024-01-30T10:15:25;9.90;99.90
57829;DHT22;43657;52.698;6.314;2024-01-30T10:17:53;9.90;99.90
57829;DHT22;43657;52.698;6.314;2024-01-30T10:20:19;10.00;99.90
57829;DHT22;43657;52.698;6.314;2024-01-30T10:22:48;10.00;99.90
57829;DHT22;43657;52.698;6.314;2024-01-30T10:25:15;10.00;99.90
57829;DHT22;43657;52.698;6.314;2024-01-30T10:27:42;10.10;99.90
57829;DHT22;43657;52.698;6.314;2024-01-30T10:30:08;10.10;99.90
57829;DHT22;43657;52.698;6.314;2024-01-30T10:32:34;10.10;99.90
57829;DHT22;43657;52.698;6.314;2024-01-30T10:35:03;10.10;99.90
57829;DHT22;43657;52.698;6.314;2024-01-30T10:37:32;10.10;99.90
57829;DHT22;43657;52.698;6.314;2024-01-30T10:40:03;10.20;99.90
57829;DHT22;43657;52.698;6.314;2024-01-30T10:42:32;10.20;99.90
57829;DHT22;43657;52.698;6.314;2024-01-30T10:45:12;10.20;99.90
57829;DHT22;43657;52.698;6.314;2024-01-30T10:47:40;10.20;99.90
57829;DHT22;43657;52.698;6.314;2024-01-30T10:50:09;10.20;99.90
57829;DHT22;43657;52.698;6.314;2024-01-30T10:52:38;10.10;99.90
57829;DHT22;43657;52.698;6.314;2024-01-30T10:55:05;10.10;99.90
57829;DHT22;43657;52.698;6.314;2024-01-30T10:57:37;10.20;99.90
57829;DHT22;43657;52.698;6.314;2024-01-30T11:00:08;10.30;99.90
57829;DHT22;43657;52.698;6.314;2024-01-30T11:02:43;10.30;99.90
57829;DHT22;43657;52.698;6.314;2024-01-30T11:05:10;10.50;99.90
57829;DHT22;43657;52.698;6.314;2024-01-30T11:07:40;10.50;99.90
57829;DHT22;43657;52.698;6.314;2024-01-30T11:10:12;10.60;99.90
57829;DHT22;43657;52.698;6.314;2024-01-30T11:12:41;10.60;99.90
57829;DHT22;43657;52.698;6.314;2024-01-30T11:15:10;10.60;99.90
57829;DHT22;43657;52.698;6.314;2024-01-30T11:22:46;10.60;99.90
57829;DHT22;43657;52.698;6.314;2024-01-30T11:25:17;10.70;99.90
57829;DHT22;43657;52.698;6.314;2024-01-30T11:27:44;10.70;99.90
57829;DHT22;43657;52.698;6.314;2024-01-30T11:30:10;10.70;99.90
57829;DHT22;43657;52.698;6.314;2024-01-30T11:32:36;10.70;99.90
57829;DHT22;43657;52.698;6.314;2024-01-30T11:35:04;10.70;99.90
57829;DHT22;43657;52.698;6.314;2024-01-30T11:37:37;10.80;99.90
57829;DHT22;43657;52.698;6.314;2024-01-30T11:40:11;10.90;99.90
57829;DHT22;43657;52.698;6.314;2024-01-30T11:42:41;11.10;99.90
57829;DHT22;43657;52.698;6.314;2024-01-30T11:45:11;11.10;99.90
57829;DHT22;43657;52.698;6.314;2024-01-30T11:47:41;11.30;99.90
57829;DHT22;43657;52.698;6.314;2024-01-30T11:50:07;11.30;99.90
57829;DHT22;43657;52.698;6.314;2024-01-30T11:52:36;11.40;99.90
57829;DHT22;43657;52.698;6.314;2024-01-30T11:55:05;11.40;99.90
57829;DHT22;43657;52.698;6.314;2024-01-30T11:57:34;11.40;99.90
57829;DHT22;43657;52.698;6.314;2024-01-30T12:00:14;11.40;99.90
57829;DHT22;43657;52.698;6.314;2024-01-30T12:02:40;11.40;99.90
57829;DHT22;43657;52.698;6.314;2024-01-30T12:05:09;11.30;99.90
57829;DHT22;43657;52.698;6.314;2024-01-30T12:07:36;11.30;99.90
57829;DHT22;43657;52.698;6.314;2024-01-30T12:10:02;11.20;99.90
57829;DHT22;43657;52.698;6.314;2024-01-30T12:12:31;11.00;99.90
57829;DHT22;43657;52.698;6.314;2024-01-30T12:14:57;10.90;99.90
57829;DHT22;43657;52.698;6.314;2024-01-30T12:17:30;10.90;99.90
57829;DHT22;43657;52.698;6.314;2024-01-30T12:20:12;10.90;99.90
57829;DHT22;43657;52.698;6.314;2024-01-30T12:22:41;11.00;99.90
57829;DHT22;43657;52.698;6.314;2024-01-30T12:25:15;11.00;99.90
57829;DHT22;43657;52.698;6.314;2024-01-30T12:27:52;10.90;99.90
57829;DHT22;43657;52.698;6.314;2024-01-30T12:30:19;10.90;99.90
57829;DHT22;43657;52.698;6.314;2024-01-30T12:32:46;10.90;99.90
57829;DHT22;43657;52.698;6.314;2024-01-30T12:35:19;10.80;99.90
57829;DHT22;43657;52.698;6.314;2024-01-30T12:37:47;10.80;99.90
57829;DHT22;43657;52.698;6.314;2024-01-30T12:40:16;10.80;99.90
57829;DHT22;43657;52.698;6.314;2024-01-30T12:42:45;10.70;99.90
57829;DHT22;43657;52.698;6.314;2024-01-30T12:45:14;10.70;99.90
57829;DHT22;43657;52.698;6.314;2024-01-30T12:47:47;10.60;99.90
57829;DHT22;43657;52.698;6.314;2024-01-30T12:50:13;10.50;99.90
57829;DHT22;43657;52.698;6.314;2024-01-30T12:52:44;10.40;99.90
57829;DHT22;43657;52.698;6.314;2024-01-30T12:55:10;10.40;99.90
57829;DHT22;43657;52.698;6.314;2024-01-30T12:57:36;10.60;99.90
57829;DHT22;43657;52.698;6.314;2024-01-30T13:00:14;10.60;99.90
57829;DHT22;43657;52.698;6.314;2024-01-30T13:02:42;10.60;99.90
57829;DHT22;43657;52.698;6.314;2024-01-30T13:05:28;10.60;99.90
57829;DHT22;43657;52.698;6.314;2024-01-30T13:08:00;10.60;99.90
57829;DHT22;43657;52.698;6.314;2024-01-30T13:13:52;10.40;99.90
57829;DHT22;43657;52.698;6.314;2024-01-30T13:16:56;10.10;99.90
57829;DHT22;43657;52.698;6.314;2024-01-30T13:19:22;9.90;99.90
57829;DHT22;43657;52.698;6.314;2024-01-30T13:21:47;9.80;99.90
57829;DHT22;43657;52.698;6.314;2024-01-30T13:24:14;9.70;99.90
57829;DHT22;43657;52.698;6.314;2024-01-30T13:26:40;9.70;99.90
57829;DHT22;43657;52.698;6.314;2024-01-30T13:29:15;9.60;99.90
57829;DHT22;43657;52.698;6.314;2024-01-30T13:31:41;9.50;99.90
57829;DHT22;43657;52.698;6.314;2024-01-30T13:34:07;9.50;99.90
57829;DHT22;43657;52.698;6.314;2024-01-30T13:36:36;9.50;99.90
57829;DHT22;43657;52.698;6.314;2024-01-30T13:39:10;9.60;99.90
57829;DHT22;43657;52.698;6.314;2024-01-30T13:41:38;9.60;99.90
57829;DHT22;43657;52.698;6.314;2024-01-30T13:44:07;9.70;99.90
57829;DHT22;43657;52.698;6.314;2024-01-30T13:46:36;9.70;99.90
57829;DHT22;43657;52.698;6.314;2024-01-30T13:49:02;9.80;99.90
57829;DHT22;43657;52.698;6.314;2024-01-30T13:51:28;9.70;99.90
57829;DHT22;43657;52.698;6.314;2024-01-30T13:53:54;9.80;99.90
57829;DHT22;43657;52.698;6.314;2024-01-30T13:56:20;9.80;99.90
57829;DHT22;43657;52.698;6.314;2024-01-30T13:58:48;9.80;99.90
57829;DHT22;43657;52.698;6.314;2024-01-30T14:01:17;9.80;99.90
57829;DHT22;43657;52.698;6.314;2024-01-30T14:03:43;9.80;99.90
57829;DHT22;43657;52.698;6.314;2024-01-30T14:06:09;9.80;99.90
57829;DHT22;43657;52.698;6.314;2024-01-30T14:08:37;9.80;99.90
57829;DHT22;43657;52.698;6.314;2024-01-30T14:11:03;9.70;99.90
57829;DHT22;43657;52.698;6.314;2024-01-30T14:13:31;9.70;99.90
57829;DHT22;43657;52.698;6.314;2024-01-30T14:15:58;9.60;99.90
57829;DHT22;43657;52.698;6.314;2024-01-30T14:18:27;9.50;99.90
57829;DHT22;43657;52.698;6.314;2024-01-30T14:20:55;9.50;99.90
57829;DHT22;43657;52.698;6.314;2024-01-30T14:23:21;9.50;99.90
57829;DHT22;43657;52.698;6.314;2024-01-30T14:25:51;9.50;99.90
57829;DHT22;43657;52.698;6.314;2024-01-30T14:28:18;9.40;99.90
57829;DHT22;43657;52.698;6.314;2024-01-30T14:30:44;9.40;99.90
57829;DHT22;43657;52.698;6.314;2024-01-30T14:33:10;9.30;99.90
57829;DHT22;43657;52.698;6.314;2024-01-30T14:35:41;9.30;99.90
57829;DHT22;43657;52.698;6.314;2024-01-30T14:38:06;9.20;99.90
57829;DHT22;43657;52.698;6.314;2024-01-30T14:40:33;9.20;99.90
57829;DHT22;43657;52.698;6.314;2024-01-30T14:42:59;9.20;99.90
57829;DHT22;43657;52.698;6.314;2024-01-30T14:45:25;9.20;99.90
57829;DHT22;43657;52.698;6.314;2024-01-30T14:47:52;9.10;99.90
57829;DHT22;43657;52.698;6.314;2024-01-30T14:50:18;9.10;99.90
57829;DHT22;43657;52.698;6.314;2024-01-30T14:52:44;9.00;99.90
57829;DHT22;43657;52.698;6.314;2024-01-30T14:55:15;8.90;99.90
57829;DHT22;43657;52.698;6.314;2024-01-30T14:57:45;8.90;99.90
57829;DHT22;43657;52.698;6.314;2024-01-30T15:00:12;8.80;99.90
57829;DHT22;43657;52.698;6.314;2024-01-30T15:02:42;8.70;99.90
57829;DHT22;43657;52.698;6.314;2024-01-30T15:05:08;8.70;99.90
57829;DHT22;43657;52.698;6.314;2024-01-30T15:07:37;8.70;99.90
57829;DHT22;43657;52.698;6.314;2024-01-30T15:10:03;8.60;99.90
57829;DHT22;43657;52.698;6.314;2024-01-30T15:12:32;8.60;99.90
57829;DHT22;43657;52.698;6.314;2024-01-30T15:14:58;8.60;99.90
57829;DHT22;43657;52.698;6.314;2024-01-30T15:17:24;8.50;99.90
57829;DHT22;43657;52.698;6.314;2024-01-30T15:19:49;8.50;99.90
57829;DHT22;43657;52.698;6.314;2024-01-30T15:22:19;8.50;99.90
57829;DHT22;43657;52.698;6.314;2024-01-30T15:24:44;8.40;99.90
57829;DHT22;43657;52.698;6.314;2024-01-30T15:27:13;8.40;99.90
57829;DHT22;43657;52.698;6.314;2024-01-30T15:29:38;8.40;99.90
57829;DHT22;43657;52.698;6.314;2024-01-30T15:32:04;8.30;99.90
57829;DHT22;43657;52.698;6.314;2024-01-30T15:34:30;8.30;99.90
57829;DHT22;43657;52.698;6.314;2024-01-30T15:36:59;8.30;99.90
57829;DHT22;43657;52.698;6.314;2024-01-30T15:39:35;8.30;99.90
57829;DHT22;43657;52.698;6.314;2024-01-30T15:42:11;8.20;99.90
57829;DHT22;43657;52.698;6.314;2024-01-30T15:44:39;8.20;99.90
57829;DHT22;43657;52.698;6.314;2024-01-30T15:47:07;8.10;99.90
57829;DHT22;43657;52.698;6.314;2024-01-30T15:49:33;8.10;99.90
57829;DHT22;43657;52.698;6.314;2024-01-30T15:51:59;8.00;99.90